OEJN/JED METAR and TAF weather

Enter ICAO airport designator
Station Type Date Time Source
OEJN METAR 2019/10/23 20:00 UTC NOAA

OEJN 232000Z 00000KT CAVOK 31/23 Q1009 NOSIG


Station Type Date Time Source
OEJN Decoded METAR 2019/10/23 20:00 UTC NOAA

Jeddah King Abdul Aziz International Airport , Saudi Arabia (OEJN) 21-42N 039-11E 17M
Oct 23, 2019 - 04:00 PM EDT / 2019.10.23 2000 UTC
Wind: Calm:0
Visibility: greater than 7 mile(s):0
Temperature: 87 F (31 C)
Heat index: 93.9 F (34.4 C):1
Dew Point: 73 F (23 C)
Relative Humidity: 62%
Pressure (altimeter): 29.80 in. Hg (1009 hPa)
ob: OEJN 232000Z 00000KT CAVOK 31/23 Q1009 NOSIG
cycle: 20

Station Type Date Time Source
OEJN TAF 2019/10/23 18:06 UTC NOAA

TAF OEJN 231700Z 2318/2424 VRB03KT 9999 SCT030
BECMG 2406/2408 24015KT

Example: see airport list